Time;durP1;ratioP1;P1;durP2;ratioP2;P2;SDS_P1;SDS_P2;PMS_P1;PMS_P2;Temp;Humidity;BMP_temperature;BMP_pressure;BME280_temperature;BME280_humidity;BME280_pressure;Samples;Min_cycle;Max_cycle;Signal;HPM_P1;HPM_P2
2021/10/09 00:00:06;;;;;;;18.42;14.68;;;;;;;;;;5077639;27;20449;-61
2021/10/09 00:02:32;;;;;;;19.77;14.73;;;;;;;;;;5012390;28;20041;-62
2021/10/09 00:04:58;;;;;;;18.98;14.60;;;;;;;;;;5012483;28;20030;-61
2021/10/09 00:07:24;;;;;;;17.08;14.25;;;;;;;;;;5030115;28;20426;-61
2021/10/09 00:09:54;;;;;;;16.95;11.48;;;;;;;;;;5031754;28;20476;-62
2021/10/09 00:12:20;;;;;;;21.08;12.68;;;;;;;;;;5031007;28;20061;-60
2021/10/09 00:14:46;;;;;;;17.00;13.77;;;;;;;;;;5030695;28;20061;-60
2021/10/09 00:17:14;;;;;;;21.10;14.85;;;;;;;;;;5012375;28;20394;-61
2021/10/09 00:19:40;;;;;;;16.45;11.07;;;;;;;;;;5114674;27;20023;-61
2021/10/09 00:22:06;;;;;;;17.88;14.30;;;;;;;;;;5135867;27;20031;-61
2021/10/09 00:24:32;;;;;;;16.05;12.27;;;;;;;;;;5136216;27;20399;-62
2021/10/09 00:26:58;;;;;;;20.42;14.05;;;;;;;;;;5136010;27;20064;-61
2021/10/09 00:29:24;;;;;;;12.25;9.00;;;;;;;;;;5135856;27;20534;-61
2021/10/09 00:31:50;;;;;;;13.57;9.82;;;;;;;;;;5105707;27;20020;-61
2021/10/09 00:34:16;;;;;;;13.60;9.45;;;;;;;;;;5031254;28;20412;-61
2021/10/09 00:36:42;;;;;;;11.32;6.70;;;;;;;;;;5031368;28;20037;-61
2021/10/09 00:39:08;;;;;;;10.88;6.88;;;;;;;;;;5031372;28;20024;-61
2021/10/09 00:41:34;;;;;;;10.45;7.15;;;;;;;;;;5031392;28;20025;-61
2021/10/09 00:44:14;;;;;;;9.65;6.80;;;;;;;;;;5031164;28;20034;-61
2021/10/09 00:46:40;;;;;;;9.30;6.78;;;;;;;;;;5031353;28;20021;-61
2021/10/09 00:49:07;;;;;;;10.32;7.13;;;;;;;;;;5012589;28;20082;-61
2021/10/09 00:51:33;;;;;;;9.35;7.05;;;;;;;;;;5011550;28;20057;-61
2021/10/09 00:54:00;;;;;;;10.70;7.20;;;;;;;;;;5039972;27;20022;-60
2021/10/09 00:56:29;;;;;;;11.93;7.43;;;;;;;;;;5031162;28;20097;-60
2021/10/09 00:58:55;;;;;;;9.70;6.88;;;;;;;;;;5031172;28;20097;-60
2021/10/09 01:01:21;;;;;;;15.35;7.55;;;;;;;;;;5031238;28;20025;-61
2021/10/09 01:03:51;;;;;;;9.95;7.13;;;;;;;;;;5030007;28;20049;-61
2021/10/09 01:06:17;;;;;;;21.40;12.85;;;;;;;;;;5022810;28;20030;-61
2021/10/09 01:08:43;;;;;;;14.88;7.68;;;;;;;;;;5011440;28;20075;-60
2021/10/09 01:11:09;;;;;;;18.42;7.90;;;;;;;;;;5079093;28;20060;-61
2021/10/09 01:13:35;;;;;;;12.35;10.15;;;;;;;;;;5011390;28;20084;-61
2021/10/09 01:16:00;;;;;;;19.60;7.90;;;;;;;;;;5011010;28;20072;-61
2021/10/09 01:18:26;;;;;;;13.75;10.13;;;;;;;;;;5050549;27;20370;-60
2021/10/09 01:20:54;;;;;;;23.70;15.20;;;;;;;;;;5060349;27;20040;-62
2021/10/09 01:23:21;;;;;;;18.02;12.70;;;;;;;;;;5010943;28;20041;-61
2021/10/09 01:25:48;;;;;;;18.70;13.32;;;;;;;;;;5010970;28;20045;-61
2021/10/09 01:28:14;;;;;;;20.92;13.48;;;;;;;;;;5011063;28;20033;-61
2021/10/09 01:30:40;;;;;;;17.88;12.88;;;;;;;;;;5010882;28;20018;-61
2021/10/09 01:33:07;;;;;;;18.83;15.50;;;;;;;;;;5010858;28;20452;-61
2021/10/09 01:35:44;;;;;;;18.17;14.32;;;;;;;;;;5016352;28;20030;-61
2021/10/09 01:38:10;;;;;;;20.55;16.70;;;;;;;;;;5030605;28;20029;-62
2021/10/09 01:40:36;;;;;;;25.08;14.57;;;;;;;;;;5030203;28;20086;-61
2021/10/09 01:43:02;;;;;;;26.27;18.85;;;;;;;;;;5030712;28;20034;-60
2021/10/09 01:45:28;;;;;;;22.48;17.73;;;;;;;;;;5030721;28;20412;-61
2021/10/09 01:47:54;;;;;;;24.33;15.50;;;;;;;;;;5098591;28;20034;-61
2021/10/09 01:50:20;;;;;;;21.88;17.30;;;;;;;;;;5029149;28;20521;-60
2021/10/09 01:52:46;;;;;;;22.42;16.73;;;;;;;;;;5042776;27;20021;-60
2021/10/09 01:55:12;;;;;;;25.30;19.45;;;;;;;;;;5030163;28;20069;-61
2021/10/09 01:57:38;;;;;;;22.88;17.40;;;;;;;;;;5030342;28;20032;-61
2021/10/09 02:00:04;;;;;;;22.85;17.38;;;;;;;;;;5030108;28;20029;-61
2021/10/09 02:02:30;;;;;;;22.50;18.30;;;;;;;;;;5098128;28;20090;-61
2021/10/09 02:04:56;;;;;;;24.23;17.48;;;;;;;;;;5030020;28;20112;-60
2021/10/09 02:07:24;;;;;;;20.70;16.23;;;;;;;;;;5011718;28;20025;-60
2021/10/09 02:09:50;;;;;;;26.73;17.63;;;;;;;;;;5010409;28;20026;-61
2021/10/09 02:12:16;;;;;;;22.30;17.65;;;;;;;;;;5010517;28;20109;-60
2021/10/09 02:14:52;;;;;;;25.35;17.45;;;;;;;;;;5010492;28;20120;-60
2021/10/09 02:28:22;;;;;;;26.27;19.67;;;;;;;;;;5054219;28;20113;-61
2021/10/09 02:30:48;;;;;;;23.52;18.67;;;;;;;;;;5010084;28;20022;-61
2021/10/09 02:33:14;;;;;;;24.42;17.92;;;;;;;;;;5009806;28;20052;-61
2021/10/09 02:35:40;;;;;;;24.15;19.42;;;;;;;;;;5076892;28;20030;-61
2021/10/09 02:38:07;;;;;;;22.65;17.08;;;;;;;;;;5010083;28;20095;-60
2021/10/09 02:40:34;;;;;;;26.25;19.48;;;;;;;;;;5012314;28;20330;-61
2021/10/09 02:43:01;;;;;;;26.05;18.73;;;;;;;;;;5029721;28;20063;-60
2021/10/09 02:45:26;;;;;;;21.77;17.38;;;;;;;;;;5029560;28;20460;-61
2021/10/09 02:47:53;;;;;;;25.00;18.05;;;;;;;;;;5029604;28;20040;-61
2021/10/09 02:50:19;;;;;;;23.10;17.80;;;;;;;;;;5029460;28;20461;-61
2021/10/09 02:52:45;;;;;;;27.83;19.27;;;;;;;;;;5041815;28;20025;-60
2021/10/09 02:55:13;;;;;;;26.98;18.02;;;;;;;;;;5029717;28;20463;-61
2021/10/09 02:57:39;;;;;;;22.05;15.07;;;;;;;;;;5024198;28;20762;-61
2021/10/09 03:00:06;;;;;;;37.80;18.95;;;;;;;;;;5019345;28;20026;-62
2021/10/09 03:02:34;;;;;;;23.38;17.83;;;;;;;;;;5029429;28;20384;-61
2021/10/09 03:05:00;;;;;;;31.83;18.25;;;;;;;;;;5029261;28;20033;-61
2021/10/09 03:07:26;;;;;;;24.45;19.45;;;;;;;;;;5010910;28;20021;-60
2021/10/09 03:09:52;;;;;;;23.02;18.35;;;;;;;;;;5009466;28;20514;-60
2021/10/09 03:12:18;;;;;;;27.90;18.20;;;;;;;;;;5009656;28;20022;-60
2021/10/09 03:14:44;;;;;;;30.15;20.17;;;;;;;;;;5009922;28;20105;-61
2021/10/09 03:17:10;;;;;;;26.88;19.15;;;;;;;;;;5029194;28;20514;-61
2021/10/09 03:19:36;;;;;;;27.00;19.90;;;;;;;;;;5112455;28;20027;-61
2021/10/09 03:22:02;;;;;;;28.13;20.35;;;;;;;;;;5133043;28;20106;-61
2021/10/09 03:24:28;;;;;;;27.05;18.48;;;;;;;;;;5133541;28;20112;-62
2021/10/09 03:26:54;;;;;;;29.80;19.88;;;;;;;;;;5133375;28;20052;-62
2021/10/09 03:29:20;;;;;;;29.42;19.20;;;;;;;;;;5133159;28;20462;-61
2021/10/09 03:31:46;;;;;;;27.80;19.95;;;;;;;;;;5132929;28;20023;-61
2021/10/09 03:34:12;;;;;;;24.48;18.65;;;;;;;;;;5078010;28;20037;-60
2021/10/09 03:36:38;;;;;;;30.63;18.17;;;;;;;;;;5009322;28;20435;-61
2021/10/09 03:39:09;;;;;;;22.35;18.05;;;;;;;;;;5077061;28;20049;-61
2021/10/09 03:41:36;;;;;;;23.83;18.85;;;;;;;;;;5009227;28;20559;-62
2021/10/09 03:44:03;;;;;;;28.67;19.73;;;;;;;;;;5009125;28;20037;-62
2021/10/09 03:46:31;;;;;;;14.38;10.20;;;;;;;;;;5009829;28;20389;-61
2021/10/09 03:54:07;;;;;;;14.07;9.55;;;;;;;;;;5044366;27;20060;-61
2021/10/09 03:56:33;;;;;;;17.48;12.82;;;;;;;;;;5032038;28;20026;-61
2021/10/09 03:59:03;;;;;;;17.83;13.38;;;;;;;;;;5032167;28;20030;-60
2021/10/09 04:01:29;;;;;;;25.13;18.65;;;;;;;;;;5032094;28;20051;-61
2021/10/09 04:03:55;;;;;;;20.90;10.32;;;;;;;;;;5100593;28;20037;-61
2021/10/09 04:06:21;;;;;;;16.45;11.77;;;;;;;;;;5021269;28;20108;-61
2021/10/09 04:08:47;;;;;;;16.98;13.10;;;;;;;;;;5012241;28;20124;-61
2021/10/09 04:11:13;;;;;;;14.38;9.85;;;;;;;;;;5012273;28;20045;-61
2021/10/09 04:13:39;;;;;;;17.73;14.55;;;;;;;;;;5012234;28;20057;-60
2021/10/09 04:16:05;;;;;;;14.98;10.75;;;;;;;;;;5012022;28;20509;-60
2021/10/09 04:18:31;;;;;;;18.33;14.73;;;;;;;;;;5055306;27;20030;-60
2021/10/09 04:20:56;;;;;;;22.27;16.63;;;;;;;;;;5100694;27;20028;-61
2021/10/09 04:23:23;;;;;;;20.33;15.73;;;;;;;;;;5056647;27;20041;-61
2021/10/09 04:25:49;;;;;;;24.02;16.60;;;;;;;;;;5031533;28;20473;-61
2021/10/09 04:28:15;;;;;;;24.70;18.05;;;;;;;;;;5031604;28;20029;-61
2021/10/09 04:30:41;;;;;;;19.17;15.77;;;;;;;;;;5031649;28;20033;-61
2021/10/09 04:33:07;;;;;;;23.02;16.98;;;;;;;;;;5041799;27;20790;-62
2021/10/09 04:35:33;;;;;;;21.38;16.27;;;;;;;;;;5030832;28;20053;-60
2021/10/09 04:38:04;;;;;;;18.15;13.95;;;;;;;;;;5031686;28;20064;-60
2021/10/09 04:40:30;;;;;;;22.45;15.98;;;;;;;;;;5030411;28;20045;-61
2021/10/09 04:42:56;;;;;;;21.92;15.77;;;;;;;;;;5031444;28;20044;-61
2021/10/09 04:45:22;;;;;;;20.02;15.57;;;;;;;;;;5031211;28;20116;-61
2021/10/09 04:47:48;;;;;;;19.58;13.65;;;;;;;;;;5031372;28;20071;-62
2021/10/09 04:50:14;;;;;;;14.55;9.80;;;;;;;;;;5031307;28;20357;-60
2021/10/09 04:52:40;;;;;;;19.10;15.23;;;;;;;;;;5031131;28;20034;-61
2021/10/09 04:55:06;;;;;;;19.88;14.75;;;;;;;;;;5099660;28;20029;-61
2021/10/09 04:57:32;;;;;;;21.52;15.98;;;;;;;;;;5058523;27;20084;-60
2021/10/09 04:59:58;;;;;;;21.25;16.42;;;;;;;;;;5100412;27;20036;-60
2021/10/09 05:02:24;;;;;;;12.75;9.90;;;;;;;;;;5074988;27;20025;-61
2021/10/09 05:04:50;;;;;;;19.15;12.75;;;;;;;;;;5112209;27;20066;-60
2021/10/09 05:07:16;;;;;;;20.17;15.63;;;;;;;;;;5087381;27;20058;-61
2021/10/09 05:09:43;;;;;;;22.65;15.65;;;;;;;;;;5087694;27;20456;-60
2021/10/09 05:12:09;;;;;;;16.35;10.38;;;;;;;;;;5087100;27;20064;-60
2021/10/09 05:14:35;;;;;;;12.05;8.88;;;;;;;;;;5087770;27;20037;-61
2021/10/09 05:17:01;;;;;;;19.80;13.13;;;;;;;;;;5091595;27;20097;-60
2021/10/09 05:19:27;;;;;;;17.50;13.93;;;;;;;;;;5090598;27;20034;-60
2021/10/09 05:21:53;;;;;;;19.23;12.88;;;;;;;;;;5049782;27;20060;-60
2021/10/09 05:24:19;;;;;;;19.33;12.60;;;;;;;;;;5030798;28;20045;-61
2021/10/09 05:26:45;;;;;;;22.02;16.90;;;;;;;;;;5030867;28;20032;-61
2021/10/09 05:29:17;;;;;;;21.77;18.13;;;;;;;;;;5030859;28;20425;-60
2021/10/09 05:31:43;;;;;;;19.30;13.93;;;;;;;;;;5092431;28;20072;-61
2021/10/09 05:34:09;;;;;;;30.20;19.88;;;;;;;;;;5113993;28;20065;-61
2021/10/09 05:36:35;;;;;;;21.73;16.77;;;;;;;;;;5114017;28;20112;-61
2021/10/09 05:39:02;;;;;;;26.35;17.85;;;;;;;;;;5113816;28;20550;-61
2021/10/09 05:41:28;;;;;;;25.10;17.77;;;;;;;;;;5114063;28;20055;-61
2021/10/09 05:43:54;;;;;;;25.80;19.42;;;;;;;;;;5113735;28;20116;-61
2021/10/09 05:46:21;;;;;;;30.38;20.50;;;;;;;;;;5113755;28;20057;-61
2021/10/09 05:48:47;;;;;;;31.65;20.55;;;;;;;;;;5034935;28;20033;-61
2021/10/09 05:51:27;;;;;;;29.92;20.17;;;;;;;;;;5033208;27;20017;-62
2021/10/09 05:56:54;;;;;;;27.60;20.00;;;;;;;;;;5071015;27;20091;-60
2021/10/09 06:43:20;;;;;;;29.08;20.05;;;;;;;;;;5062217;28;20052;-59
2021/10/09 06:48:13;;;;;;;27.48;19.83;;;;;;;;;;5073247;28;20081;-60
2021/10/09 06:59:25;;;;;;;28.55;19.38;;;;;;;;;;5086702;28;20377;-62
2021/10/09 07:01:44;;;;;;;24.25;18.20;;;;;;;;;;5090240;28;20066;-60
2021/10/09 07:04:10;;;;;;;27.52;15.35;;;;;;;;;;5061413;28;20042;-60
2021/10/09 07:06:38;;;;;;;22.60;14.73;;;;;;;;;;5040880;28;20390;-59
2021/10/09 07:09:04;;;;;;;25.02;17.38;;;;;;;;;;5019553;28;20484;-60
2021/10/09 07:11:30;;;;;;;28.70;16.08;;;;;;;;;;5020140;28;20553;-61
2021/10/09 07:13:56;;;;;;;26.23;15.30;;;;;;;;;;5021871;28;20022;-60
2021/10/09 07:16:22;;;;;;;24.60;16.38;;;;;;;;;;5018286;28;20026;-59
2021/10/09 07:18:48;;;;;;;25.08;17.73;;;;;;;;;;5078167;28;20058;-61
2021/10/09 07:21:14;;;;;;;24.77;17.80;;;;;;;;;;5103193;27;20027;-61
2021/10/09 07:23:40;;;;;;;28.73;14.93;;;;;;;;;;5093157;27;20539;-62
2021/10/09 07:26:07;;;;;;;25.17;15.70;;;;;;;;;;5079077;27;20025;-60
2021/10/09 07:28:33;;;;;;;24.63;16.17;;;;;;;;;;5081065;27;20030;-62
2021/10/09 07:30:59;;;;;;;32.25;16.48;;;;;;;;;;5091900;27;20068;-61
2021/10/09 07:33:30;;;;;;;24.65;15.07;;;;;;;;;;5074399;27;20035;-62
2021/10/09 07:35:56;;;;;;;21.92;14.98;;;;;;;;;;5075617;27;20057;-63
2021/10/09 07:38:22;;;;;;;19.92;15.00;;;;;;;;;;5085621;27;20024;-63
2021/10/09 07:40:48;;;;;;;24.27;16.13;;;;;;;;;;5079410;27;20094;-59
2021/10/09 07:43:14;;;;;;;24.88;14.45;;;;;;;;;;5075857;27;20086;-60
2021/10/09 07:45:40;;;;;;;36.90;15.93;;;;;;;;;;5093533;27;20032;-59
2021/10/09 07:48:06;;;;;;;22.13;16.02;;;;;;;;;;5095906;27;20041;-60
2021/10/09 07:50:32;;;;;;;30.40;15.57;;;;;;;;;;5061066;27;20061;-61
2021/10/09 07:52:59;;;;;;;27.60;15.35;;;;;;;;;;5111883;27;20023;-59
2021/10/09 07:55:25;;;;;;;21.20;16.27;;;;;;;;;;5086663;27;20077;-59
2021/10/09 07:57:51;;;;;;;23.33;15.70;;;;;;;;;;5079230;27;20045;-60
2021/10/09 08:00:17;;;;;;;24.00;16.58;;;;;;;;;;5084216;27;20032;-58
2021/10/09 08:02:47;;;;;;;29.63;17.00;;;;;;;;;;5055636;27;20426;-59
2021/10/09 08:05:13;;;;;;;28.45;16.27;;;;;;;;;;5079647;27;20030;-58
2021/10/09 08:07:39;;;;;;;26.25;17.05;;;;;;;;;;5073218;27;20017;-60
2021/10/09 08:10:05;;;;;;;28.13;17.52;;;;;;;;;;5042774;27;20026;-58
2021/10/09 08:12:31;;;;;;;37.97;19.40;;;;;;;;;;5100422;27;20030;-59
2021/10/09 08:14:57;;;;;;;25.73;19.40;;;;;;;;;;5093202;27;20472;-59
2021/10/09 08:17:23;;;;;;;32.58;20.58;;;;;;;;;;5104475;27;20036;-58
2021/10/09 08:19:49;;;;;;;31.33;20.58;;;;;;;;;;5087157;27;20096;-59
2021/10/09 08:22:15;;;;;;;30.77;22.45;;;;;;;;;;5104541;27;20015;-60
2021/10/09 08:24:52;;;;;;;30.23;21.52;;;;;;;;;;5088993;27;20049;-60
2021/10/09 08:40:42;;;;;;;32.47;22.27;;;;;;;;;;5053270;27;20293;-59
2021/10/09 08:43:08;;;;;;;30.50;21.77;;;;;;;;;;5096254;28;20071;-59
2021/10/09 08:45:34;;;;;;;33.78;22.20;;;;;;;;;;5090585;27;20106;-59
2021/10/09 08:48:00;;;;;;;33.85;22.95;;;;;;;;;;5092080;27;20028;-61
2021/10/09 08:50:26;;;;;;;37.25;23.05;;;;;;;;;;5032427;27;20091;-58
2021/10/09 08:53:00;;;;;;;33.80;21.67;;;;;;;;;;5018535;28;20422;-61
2021/10/09 08:55:27;;;;;;;30.88;22.05;;;;;;;;;;5067738;27;20033;-60
2021/10/09 08:57:57;;;;;;;42.08;21.88;;;;;;;;;;5072222;27;20362;-61
2021/10/09 09:00:44;;;;;;;31.45;21.45;;;;;;;;;;5075153;27;20086;-61
2021/10/09 09:03:14;;;;;;;33.80;23.20;;;;;;;;;;5108533;27;20022;-60
2021/10/09 09:05:56;;;;;;;33.45;23.13;;;;;;;;;;5068159;27;20015;-60
2021/10/09 09:30:22;;;;;;;38.67;25.60;;;;;;;;;;5074212;27;20147;-60
2021/10/09 09:31:03;;;;;;;43.15;24.30;;;;;;;;;;5061253;27;20042;-58
2021/10/09 09:39:07;;;;;;;38.53;24.35;;;;;;;;;;5086050;27;20025;-61
2021/10/09 09:41:43;;;;;;;35.90;23.85;;;;;;;;;;5111261;27;20071;-63
2021/10/09 09:44:11;;;;;;;37.30;26.20;;;;;;;;;;5072487;27;20027;-61
2021/10/09 09:46:38;;;;;;;40.03;25.45;;;;;;;;;;5087348;27;20354;-61
2021/10/09 09:49:05;;;;;;;43.72;26.17;;;;;;;;;;5134747;27;20027;-60
2021/10/09 09:51:31;;;;;;;38.85;24.70;;;;;;;;;;5134468;27;20032;-60
2021/10/09 09:53:58;;;;;;;36.67;24.55;;;;;;;;;;5134128;27;20015;-60
2021/10/09 09:56:24;;;;;;;41.10;26.25;;;;;;;;;;5133834;27;20119;-60
2021/10/09 09:58:54;;;;;;;40.33;25.50;;;;;;;;;;5133973;27;20084;-60
2021/10/09 10:01:22;;;;;;;41.50;25.15;;;;;;;;;;5094514;27;20023;-62
2021/10/09 10:03:49;;;;;;;51.00;26.98;;;;;;;;;;5101402;27;20041;-59
2021/10/09 10:06:15;;;;;;;47.22;26.92;;;;;;;;;;5045924;27;20071;-60
2021/10/09 10:08:41;;;;;;;47.13;28.02;;;;;;;;;;5105579;27;20050;-60
2021/10/09 10:11:09;;;;;;;54.85;27.55;;;;;;;;;;5104127;27;20022;-60
2021/10/09 10:13:35;;;;;;;46.78;27.65;;;;;;;;;;5085970;27;20023;-60
2021/10/09 10:16:06;;;;;;;46.13;26.95;;;;;;;;;;5081763;27;20041;-60
2021/10/09 10:19:01;;;;;;;52.00;26.67;;;;;;;;;;5094684;27;20061;-60
2021/10/09 10:21:37;;;;;;;55.00;28.50;;;;;;;;;;5098531;27;20062;-60
2021/10/09 10:24:03;;;;;;;45.40;26.75;;;;;;;;;;5113789;27;20096;-60
2021/10/09 10:26:33;;;;;;;45.92;26.48;;;;;;;;;;5044425;27;20040;-60
2021/10/09 10:28:59;;;;;;;52.58;25.73;;;;;;;;;;5124513;27;20034;-63
2021/10/09 10:31:26;;;;;;;55.80;27.25;;;;;;;;;;5103789;27;20052;-60
2021/10/09 10:34:12;;;;;;;42.15;27.13;;;;;;;;;;5115183;28;20038;-60
2021/10/09 10:36:39;;;;;;;60.90;26.83;;;;;;;;;;5120899;27;20139;-60
2021/10/09 10:39:10;;;;;;;40.33;26.25;;;;;;;;;;5080801;27;20071;-61
2021/10/09 10:41:40;;;;;;;47.85;26.25;;;;;;;;;;5103024;27;20066;-60
2021/10/09 10:44:08;;;;;;;56.40;26.45;;;;;;;;;;5029320;28;20037;-61
2021/10/09 10:46:47;;;;;;;44.13;25.25;;;;;;;;;;5029539;28;20033;-61
2021/10/09 10:57:02;;;;;;;44.72;24.65;;;;;;;;;;5109038;27;20046;-61
2021/10/09 10:59:48;;;;;;;38.95;24.33;;;;;;;;;;5136437;27;20027;-62
2021/10/09 11:02:14;;;;;;;43.30;25.08;;;;;;;;;;5092857;27;20047;-61
2021/10/09 11:04:42;;;;;;;42.58;26.40;;;;;;;;;;5081052;27;20031;-60
2021/10/09 11:07:08;;;;;;;35.90;24.58;;;;;;;;;;5075468;27;20482;-62
2021/10/09 11:09:36;;;;;;;47.55;24.83;;;;;;;;;;5117934;27;20432;-61
2021/10/09 11:12:04;;;;;;;60.28;25.77;;;;;;;;;;5104397;27;20804;-60
2021/10/09 11:14:30;;;;;;;46.95;25.92;;;;;;;;;;5062920;27;20028;-60
2021/10/09 11:17:01;;;;;;;45.05;26.70;;;;;;;;;;5083822;27;20027;-60
2021/10/09 11:19:42;;;;;;;44.10;26.05;;;;;;;;;;5089216;27;20011;-61
2021/10/09 11:22:09;;;;;;;48.22;26.23;;;;;;;;;;5027524;27;20060;-60
2021/10/09 11:24:42;;;;;;;40.80;25.42;;;;;;;;;;5114252;27;20041;-60
2021/10/09 11:27:08;;;;;;;37.22;25.02;;;;;;;;;;5086638;27;20022;-60
2021/10/09 11:29:34;;;;;;;42.00;26.65;;;;;;;;;;5103458;27;20040;-61
2021/10/09 11:32:04;;;;;;;42.83;26.55;;;;;;;;;;5059906;27;20027;-61
2021/10/09 11:34:31;;;;;;;47.17;26.38;;;;;;;;;;5076714;27;20022;-60
2021/10/09 11:36:57;;;;;;;40.55;26.48;;;;;;;;;;5121362;27;20043;-60
2021/10/09 11:39:26;;;;;;;43.55;25.88;;;;;;;;;;5076740;27;20057;-61
2021/10/09 11:42:09;;;;;;;40.05;26.38;;;;;;;;;;5065922;27;20099;-60
2021/10/09 11:44:39;;;;;;;44.60;25.83;;;;;;;;;;5109216;27;20039;-61
2021/10/09 11:55:48;;;;;;;37.72;26.08;;;;;;;;;;5071248;27;20164;-59
2021/10/09 11:58:14;;;;;;;42.13;27.42;;;;;;;;;;5136211;27;20042;-59
2021/10/09 12:00:41;;;;;;;51.65;27.13;;;;;;;;;;5068911;27;20477;-60
2021/10/09 12:03:25;;;;;;;56.92;27.00;;;;;;;;;;5025437;27;20038;-60
2021/10/09 12:05:56;;;;;;;48.45;27.13;;;;;;;;;;5102379;27;20033;-61
2021/10/09 12:08:29;;;;;;;46.53;27.55;;;;;;;;;;5070134;27;20439;-63
2021/10/09 12:11:10;;;;;;;46.03;27.42;;;;;;;;;;5088182;27;20043;-60
2021/10/09 12:13:45;;;;;;;53.20;28.85;;;;;;;;;;5101417;27;20061;-62
2021/10/09 12:16:11;;;;;;;51.45;27.67;;;;;;;;;;5083238;27;20053;-60
2021/10/09 12:18:47;;;;;;;40.30;26.70;;;;;;;;;;5083763;27;20424;-61
2021/10/09 12:21:13;;;;;;;48.25;27.75;;;;;;;;;;5082478;27;20047;-60
2021/10/09 12:23:38;;;;;;;41.47;27.70;;;;;;;;;;5097689;27;20072;-60
2021/10/09 12:26:14;;;;;;;41.90;27.50;;;;;;;;;;5081524;27;20381;-61
2021/10/09 12:28:59;;;;;;;50.50;28.95;;;;;;;;;;5051133;28;20025;-60
2021/10/09 12:31:28;;;;;;;40.88;27.83;;;;;;;;;;5050804;28;20499;-61
2021/10/09 12:33:55;;;;;;;38.17;26.85;;;;;;;;;;5037986;28;20021;-60
2021/10/09 12:39:17;;;;;;;42.28;27.42;;;;;;;;;;5010866;28;20194;-63
2021/10/09 12:41:43;;;;;;;46.17;28.15;;;;;;;;;;5010310;28;20485;-61
2021/10/09 12:44:09;;;;;;;47.90;28.23;;;;;;;;;;5078878;28;20596;-60
2021/10/09 12:46:35;;;;;;;39.55;26.50;;;;;;;;;;5042856;27;20052;-61
2021/10/09 12:49:01;;;;;;;52.45;26.73;;;;;;;;;;5102719;27;20035;-60
2021/10/09 12:51:27;;;;;;;55.13;26.48;;;;;;;;;;5043565;27;20030;-60
2021/10/09 12:53:55;;;;;;;45.15;26.50;;;;;;;;;;5107793;27;20046;-61
2021/10/09 12:56:21;;;;;;;48.25;27.30;;;;;;;;;;5113392;27;20038;-60
2021/10/09 12:58:47;;;;;;;43.88;27.63;;;;;;;;;;5134833;27;20382;-60
2021/10/09 13:01:13;;;;;;;43.38;27.42;;;;;;;;;;5054289;27;20021;-60
2021/10/09 13:03:39;;;;;;;42.08;25.60;;;;;;;;;;5047804;28;20033;-60
2021/10/09 13:06:06;;;;;;;39.13;26.63;;;;;;;;;;5018791;28;20033;-60
2021/10/09 13:08:32;;;;;;;43.05;26.80;;;;;;;;;;5085617;28;20030;-60
2021/10/09 13:10:59;;;;;;;37.85;25.10;;;;;;;;;;5021567;28;20126;-60
2021/10/09 13:13:25;;;;;;;53.10;25.48;;;;;;;;;;5050236;28;20056;-60
2021/10/09 13:15:51;;;;;;;38.10;25.58;;;;;;;;;;5039243;28;20078;-60
2021/10/09 13:18:17;;;;;;;43.63;25.08;;;;;;;;;;5029919;28;20029;-61
2021/10/09 13:20:43;;;;;;;35.85;25.08;;;;;;;;;;5068946;27;20037;-60
2021/10/09 13:23:09;;;;;;;38.17;24.95;;;;;;;;;;5134175;27;20042;-60
2021/10/09 13:25:35;;;;;;;35.45;24.45;;;;;;;;;;5093125;27;20678;-60
2021/10/09 13:28:01;;;;;;;39.85;24.75;;;;;;;;;;5029431;28;20061;-60
2021/10/09 13:30:27;;;;;;;36.50;25.13;;;;;;;;;;5028341;28;20032;-60
2021/10/09 13:32:53;;;;;;;36.10;24.48;;;;;;;;;;5024428;27;20365;-60
2021/10/09 13:35:20;;;;;;;42.88;26.60;;;;;;;;;;5027902;28;20491;-60
2021/10/09 13:37:50;;;;;;;38.25;25.80;;;;;;;;;;5011600;28;20468;-60
2021/10/09 13:40:16;;;;;;;36.60;25.65;;;;;;;;;;5028321;28;20377;-60
2021/10/09 13:42:42;;;;;;;39.45;25.58;;;;;;;;;;5029977;28;20040;-60
2021/10/09 13:45:08;;;;;;;37.28;25.23;;;;;;;;;;5035016;28;20049;-60
2021/10/09 13:47:35;;;;;;;37.05;24.98;;;;;;;;;;5029887;28;20026;-60
2021/10/09 13:50:01;;;;;;;42.55;24.80;;;;;;;;;;5015232;27;20021;-60
2021/10/09 13:52:27;;;;;;;34.75;24.85;;;;;;;;;;5013483;28;20022;-60
2021/10/09 13:54:53;;;;;;;37.67;25.27;;;;;;;;;;5013199;27;20094;-60
2021/10/09 13:57:19;;;;;;;42.50;25.48;;;;;;;;;;5063853;27;20404;-60
2021/10/09 13:59:45;;;;;;;35.65;24.50;;;;;;;;;;5071785;27;20023;-60
2021/10/09 14:02:11;;;;;;;39.35;25.85;;;;;;;;;;5071386;27;20030;-60
2021/10/09 14:04:38;;;;;;;38.65;24.60;;;;;;;;;;5071955;27;20043;-61
2021/10/09 14:07:04;;;;;;;37.45;24.17;;;;;;;;;;5071738;27;20018;-60
2021/10/09 14:09:30;;;;;;;39.75;24.42;;;;;;;;;;5030322;27;20025;-60
2021/10/09 14:11:56;;;;;;;33.33;24.30;;;;;;;;;;5083280;27;20358;-59
2021/10/09 14:14:25;;;;;;;35.47;23.30;;;;;;;;;;5101787;28;20112;-60
2021/10/09 14:16:57;;;;;;;36.95;24.60;;;;;;;;;;5081333;27;20102;-60
2021/10/09 14:19:23;;;;;;;36.00;23.77;;;;;;;;;;5087049;27;20024;-60
2021/10/09 14:21:49;;;;;;;39.65;24.40;;;;;;;;;;5107227;27;20309;-60
2021/10/09 14:24:22;;;;;;;35.63;24.30;;;;;;;;;;5089774;27;20050;-60
2021/10/09 14:26:48;;;;;;;33.85;23.48;;;;;;;;;;5061014;27;20093;-62
2021/10/09 14:29:14;;;;;;;37.08;23.55;;;;;;;;;;5081017;27;20047;-61
2021/10/09 14:31:40;;;;;;;37.60;23.45;;;;;;;;;;5057061;27;20033;-60
2021/10/09 14:34:06;;;;;;;39.15;23.88;;;;;;;;;;5035402;28;20122;-60
2021/10/09 14:36:32;;;;;;;41.50;23.50;;;;;;;;;;5016840;28;20070;-61
2021/10/09 14:38:58;;;;;;;32.65;23.48;;;;;;;;;;5007658;28;20427;-61
2021/10/09 14:41:24;;;;;;;36.30;22.77;;;;;;;;;;5038131;28;20032;-60
2021/10/09 14:43:50;;;;;;;36.25;23.67;;;;;;;;;;5028093;28;20038;-60
2021/10/09 14:46:39;;;;;;;34.20;22.85;;;;;;;;;;5026678;28;20030;-60
2021/10/09 14:49:07;;;;;;;32.45;23.58;;;;;;;;;;5028718;28;20025;-60
2021/10/09 15:02:35;;;;;;;32.58;21.63;;;;;;;;;;5009278;28;20033;-60
2021/10/09 15:16:23;;;;;;;38.97;22.42;;;;;;;;;;5017681;28;20053;-61
2021/10/09 15:18:49;;;;;;;39.70;21.52;;;;;;;;;;5076839;28;20026;-60
2021/10/09 15:21:16;;;;;;;36.58;22.13;;;;;;;;;;5020682;28;20029;-60
2021/10/09 15:23:42;;;;;;;43.20;21.63;;;;;;;;;;5028944;28;20045;-60
2021/10/09 15:26:08;;;;;;;42.97;21.42;;;;;;;;;;5027269;28;20473;-60
2021/10/09 15:28:34;;;;;;;28.95;20.70;;;;;;;;;;5028710;28;20485;-60
2021/10/09 15:31:00;;;;;;;34.13;22.02;;;;;;;;;;5027742;28;20229;-60
2021/10/09 15:33:26;;;;;;;31.85;21.13;;;;;;;;;;5029074;28;20025;-60
2021/10/09 15:35:52;;;;;;;35.17;21.77;;;;;;;;;;5027187;28;20042;-60
2021/10/09 15:38:18;;;;;;;32.50;21.25;;;;;;;;;;5028626;28;20485;-60
2021/10/09 15:40:44;;;;;;;29.40;20.52;;;;;;;;;;5060075;28;20027;-60
2021/10/09 15:43:10;;;;;;;31.33;21.75;;;;;;;;;;5115566;28;20046;-60
2021/10/09 15:45:36;;;;;;;30.10;20.90;;;;;;;;;;5083038;28;20064;-60
2021/10/09 15:48:03;;;;;;;28.85;20.98;;;;;;;;;;5100677;28;20022;-60
2021/10/09 15:50:29;;;;;;;33.42;21.25;;;;;;;;;;5030467;28;20033;-60
2021/10/09 15:52:55;;;;;;;31.45;21.58;;;;;;;;;;5069435;27;20023;-60
2021/10/09 15:55:21;;;;;;;34.60;21.95;;;;;;;;;;5102438;27;20029;-60
2021/10/09 15:57:47;;;;;;;29.95;21.42;;;;;;;;;;5079779;28;20101;-60
2021/10/09 16:00:14;;;;;;;29.65;21.05;;;;;;;;;;5015222;28;20108;-60
2021/10/09 16:02:40;;;;;;;29.75;20.92;;;;;;;;;;5032131;28;20104;-60
2021/10/09 16:05:07;;;;;;;29.55;20.20;;;;;;;;;;5031029;28;20128;-60
2021/10/09 16:07:33;;;;;;;32.60;21.42;;;;;;;;;;5031972;28;20128;-61
2021/10/09 16:10:00;;;;;;;31.70;20.70;;;;;;;;;;5030501;28;20026;-60
2021/10/09 16:12:26;;;;;;;29.02;19.80;;;;;;;;;;5032076;28;20101;-61
2021/10/09 16:14:52;;;;;;;27.85;18.98;;;;;;;;;;5029827;28;20105;-60
2021/10/09 16:17:22;;;;;;;32.28;21.42;;;;;;;;;;5012405;28;20423;-60
2021/10/09 16:19:48;;;;;;;32.38;20.02;;;;;;;;;;5011460;28;20051;-60
2021/10/09 16:22:14;;;;;;;28.30;19.75;;;;;;;;;;5011987;28;20493;-60
2021/10/09 16:24:40;;;;;;;27.30;19.90;;;;;;;;;;5011870;28;20042;-60
2021/10/09 16:27:06;;;;;;;27.95;19.75;;;;;;;;;;5030596;28;20026;-60
2021/10/09 16:29:32;;;;;;;28.63;20.00;;;;;;;;;;5100195;28;20029;-60
2021/10/09 16:31:58;;;;;;;28.10;19.27;;;;;;;;;;5012583;28;20030;-60
2021/10/09 16:34:24;;;;;;;29.55;20.05;;;;;;;;;;5012086;28;20026;-60
2021/10/09 16:36:55;;;;;;;26.63;19.02;;;;;;;;;;5011466;28;20213;-60
2021/10/09 16:39:21;;;;;;;27.80;19.13;;;;;;;;;;5011561;28;20032;-60
2021/10/09 16:41:49;;;;;;;25.63;18.25;;;;;;;;;;5096211;28;20393;-60
2021/10/09 16:44:15;;;;;;;24.60;17.27;;;;;;;;;;5031495;28;20086;-60
2021/10/09 16:46:41;;;;;;;24.67;17.88;;;;;;;;;;5030088;28;20033;-60
2021/10/09 16:49:07;;;;;;;26.70;18.60;;;;;;;;;;5031569;28;20029;-60
2021/10/09 16:51:34;;;;;;;24.63;18.73;;;;;;;;;;5015742;28;20121;-60
2021/10/09 16:54:00;;;;;;;23.23;16.92;;;;;;;;;;5110897;27;20027;-60